Time;durP1;ratioP1;P1;durP2;ratioP2;P2;SDS_P1;SDS_P2;PMS_P1;PMS_P2;Temp;Humidity;BMP_temperature;BMP_pressure;BME280_temperature;BME280_humidity;BME280_pressure;Samples;Min_cycle;Max_cycle;Signal;HPM_P1;HPM_P2
2022/10/22 00:02:19;;;;;;;;;;;16.70;72.00;;;;;;5032555;28;19913;-82
2022/10/22 00:04:46;;;;;;;;;;;16.70;72.00;;;;;;5032044;28;19913;-82
2022/10/22 00:07:12;;;;;;;;;;;16.70;72.00;;;;;;5032239;28;19925;-82
2022/10/22 00:09:37;;;;;;;;;;;16.60;72.00;;;;;;5034065;28;19963;-81
2022/10/22 00:12:03;;;;;;;;;;;16.70;72.00;;;;;;5036571;28;19991;-81
2022/10/22 00:14:29;;;;;;;;;;;16.60;72.00;;;;;;5035946;28;20358;-81
2022/10/22 00:16:55;;;;;;;;;;;16.60;72.00;;;;;;5035803;28;19917;-82
2022/10/22 00:19:21;;;;;;;;;;;16.60;72.10;;;;;;5019247;28;19953;-81
2022/10/22 00:21:46;;;;;;;;;;;16.60;72.00;;;;;;5035579;28;19913;-82
2022/10/22 00:24:12;;;;;;;;;;;16.60;72.00;;;;;;5002779;28;19932;-81
2022/10/22 00:26:39;;;;;;;;;;;16.50;72.00;;;;;;5035801;28;20047;-81
2022/10/22 00:29:05;;;;;;;;;;;16.60;72.10;;;;;;5019104;28;20361;-83
2022/10/22 00:31:30;;;;;;;;;;;16.50;72.00;;;;;;5035424;28;19944;-82
2022/10/22 00:33:56;;;;;;;;;;;16.50;72.00;;;;;;5035403;28;19916;-82
2022/10/22 00:36:22;;;;;;;;;;;16.50;72.10;;;;;;5019030;28;20094;-82
2022/10/22 00:38:47;;;;;;;;;;;16.50;72.10;;;;;;5034986;28;19913;-82
2022/10/22 00:41:13;;;;;;;;;;;16.50;72.10;;;;;;5035550;28;19918;-81
2022/10/22 00:43:58;;;;;;;;;;;16.50;72.10;;;;;;5035316;28;20393;-82
2022/10/22 00:46:24;;;;;;;;;;;16.40;72.00;;;;;;5051538;28;20480;-82
2022/10/22 00:48:51;;;;;;;;;;;16.40;72.00;;;;;;5035484;28;19959;-82
2022/10/22 00:51:17;;;;;;;;;;;16.40;72.10;;;;;;5034967;28;20011;-82
2022/10/22 00:53:45;;;;;;;;;;;16.40;72.10;;;;;;5035050;28;19915;-82
2022/10/22 00:56:11;;;;;;;;;;;16.40;72.10;;;;;;5035097;28;19913;-82
2022/10/22 00:58:38;;;;;;;;;;;16.30;72.00;;;;;;5035111;28;19913;-82
2022/10/22 01:01:04;;;;;;;;;;;16.30;72.10;;;;;;5035812;28;19913;-82
2022/10/22 01:03:30;;;;;;;;;;;16.30;72.10;;;;;;5035557;28;19914;-82
2022/10/22 01:05:57;;;;;;;;;;;16.30;72.10;;;;;;5018669;28;19969;-82
2022/10/22 01:08:41;;;;;;;;;;;16.30;72.10;;;;;;5036255;28;19916;-82
2022/10/22 01:11:16;;;;;;;;;;;16.30;72.10;;;;;;5035143;28;19920;-81
2022/10/22 01:13:56;;;;;;;;;;;16.30;72.20;;;;;;5034622;28;20063;-81
2022/10/22 01:16:35;;;;;;;;;;;16.20;72.20;;;;;;5035425;28;19967;-82
2022/10/22 01:19:03;;;;;;;;;;;16.20;72.20;;;;;;5034679;28;19924;-82
2022/10/22 01:21:34;;;;;;;;;;;16.20;72.20;;;;;;5051922;28;20253;-82
2022/10/22 01:24:00;;;;;;;;;;;16.20;72.30;;;;;;5034632;28;19927;-82
2022/10/22 01:26:29;;;;;;;;;;;16.20;72.50;;;;;;5051079;28;20373;-81
2022/10/22 01:29:01;;;;;;;;;;;16.10;72.30;;;;;;5051811;28;19909;-82
2022/10/22 01:31:32;;;;;;;;;;;16.10;72.30;;;;;;5051183;28;19919;-81
2022/10/22 01:33:59;;;;;;;;;;;16.10;72.30;;;;;;5034562;28;20313;-82
2022/10/22 01:36:26;;;;;;;;;;;16.10;72.30;;;;;;5034215;28;19909;-81
2022/10/22 01:38:52;;;;;;;;;;;16.00;72.30;;;;;;5034399;28;19913;-82
2022/10/22 01:41:17;;;;;;;;;;;16.00;72.40;;;;;;5034215;28;19913;-82
2022/10/22 01:43:43;;;;;;;;;;;16.00;72.40;;;;;;5034077;28;19925;-81
2022/10/22 01:46:09;;;;;;;;;;;16.00;72.40;;;;;;5017383;28;19984;-83
2022/10/22 01:48:35;;;;;;;;;;;16.00;72.40;;;;;;5034322;28;19920;-82
2022/10/22 01:51:03;;;;;;;;;;;16.00;72.40;;;;;;5034721;28;20349;-82
2022/10/22 01:53:35;;;;;;;;;;;15.90;72.30;;;;;;5050767;28;19920;-82
2022/10/22 01:56:05;;;;;;;;;;;15.90;72.40;;;;;;5034168;28;20000;-82
2022/10/22 01:58:46;;;;;;;;;;;15.90;72.40;;;;;;5034040;28;19949;-82
2022/10/22 02:01:14;;;;;;;;;;;15.90;72.40;;;;;;5033764;28;20358;-82
2022/10/22 02:03:43;;;;;;;;;;;15.90;72.40;;;;;;5033873;28;19909;-82
2022/10/22 02:06:12;;;;;;;;;;;15.90;72.40;;;;;;5033556;28;19927;-82
2022/10/22 02:08:39;;;;;;;;;;;15.90;73.10;;;;;;5033718;28;19915;-82
2022/10/22 02:11:05;;;;;;;;;;;15.80;72.40;;;;;;5033482;28;20004;-81
2022/10/22 02:13:37;;;;;;;;;;;15.80;72.40;;;;;;5034494;28;19952;-81
2022/10/22 02:16:05;;;;;;;;;;;15.80;72.40;;;;;;5033140;28;19921;-82
2022/10/22 02:18:32;;;;;;;;;;;15.80;72.40;;;;;;5033540;28;19998;-81
2022/10/22 02:20:58;;;;;;;;;;;15.80;72.40;;;;;;5033321;28;19917;-82
2022/10/22 02:23:25;;;;;;;;;;;15.80;72.40;;;;;;5033472;28;19924;-82
2022/10/22 02:25:54;;;;;;;;;;;15.80;72.50;;;;;;5034069;28;20373;-83
2022/10/22 02:28:38;;;;;;;;;;;15.80;73.10;;;;;;5033142;28;19909;-82
2022/10/22 02:31:15;;;;;;;;;;;15.70;72.40;;;;;;5033778;28;19958;-81
2022/10/22 02:33:49;;;;;;;;;;;15.70;72.40;;;;;;5034508;28;19928;-82
2022/10/22 02:36:15;;;;;;;;;;;15.70;72.50;;;;;;5034043;28;19913;-82
2022/10/22 02:38:41;;;;;;;;;;;15.70;72.50;;;;;;5034450;28;19909;-82
2022/10/22 02:41:07;;;;;;;;;;;15.70;72.50;;;;;;5033846;28;19917;-82
2022/10/22 02:43:43;;;;;;;;;;;15.70;72.50;;;;;;5033145;28;20292;-81
2022/10/22 02:46:09;;;;;;;;;;;15.60;72.50;;;;;;5032642;28;20314;-82
2022/10/22 02:48:35;;;;;;;;;;;15.60;72.50;;;;;;5032901;28;20051;-81
2022/10/22 02:51:01;;;;;;;;;;;15.60;73.10;;;;;;5016177;28;20756;-82
2022/10/22 02:53:27;;;;;;;;;;;15.60;72.50;;;;;;5016448;28;19921;-81
2022/10/22 02:55:53;;;;;;;;;;;15.60;72.50;;;;;;5032719;28;19913;-82
2022/10/22 02:58:18;;;;;;;;;;;15.50;72.50;;;;;;5017111;28;19957;-82
2022/10/22 03:00:44;;;;;;;;;;;15.60;72.60;;;;;;5032856;28;20008;-82
2022/10/22 03:03:09;;;;;;;;;;;15.50;72.50;;;;;;5049355;28;19999;-82
2022/10/22 03:05:35;;;;;;;;;;;15.50;72.50;;;;;;5049372;28;19913;-82
2022/10/22 03:08:01;;;;;;;;;;;15.50;72.50;;;;;;5017047;28;19921;-83
2022/10/22 03:10:26;;;;;;;;;;;15.50;72.60;;;;;;5016341;28;19992;-81
2022/10/22 03:12:52;;;;;;;;;;;15.50;72.60;;;;;;5032779;28;20411;-82
2022/10/22 03:15:18;;;;;;;;;;;15.50;72.60;;;;;;5033174;28;19917;-81
2022/10/22 03:17:43;;;;;;;;;;;15.50;72.60;;;;;;5016073;28;20269;-83
2022/10/22 03:20:09;;;;;;;;;;;15.50;72.60;;;;;;5032187;28;20384;-80
2022/10/22 03:22:35;;;;;;;;;;;15.40;72.60;;;;;;5032458;28;20273;-82
2022/10/22 03:25:06;;;;;;;;;;;15.50;72.60;;;;;;5032458;28;20404;-82
2022/10/22 03:27:33;;;;;;;;;;;15.40;72.50;;;;;;5032101;28;20059;-82
2022/10/22 03:29:58;;;;;;;;;;;15.40;72.60;;;;;;5016277;28;20046;-81
2022/10/22 03:32:24;;;;;;;;;;;15.40;72.60;;;;;;5016306;28;20381;-82
2022/10/22 03:34:49;;;;;;;;;;;15.40;72.60;;;;;;5016057;28;19979;-80
2022/10/22 03:37:15;;;;;;;;;;;15.40;72.60;;;;;;5032489;28;19917;-81
2022/10/22 03:39:41;;;;;;;;;;;15.40;72.60;;;;;;5032452;28;20283;-81
2022/10/22 03:42:07;;;;;;;;;;;15.40;72.60;;;;;;5032359;28;19967;-81
2022/10/22 03:44:34;;;;;;;;;;;15.30;72.50;;;;;;5017691;28;19917;-82
2022/10/22 03:47:00;;;;;;;;;;;15.30;72.50;;;;;;5035734;28;19968;-82
2022/10/22 03:49:25;;;;;;;;;;;15.30;72.50;;;;;;5036376;28;19917;-82
2022/10/22 03:51:51;;;;;;;;;;;15.30;72.60;;;;;;5036550;28;19924;-81
2022/10/22 03:54:17;;;;;;;;;;;15.30;72.60;;;;;;5019659;28;20309;-82
2022/10/22 03:56:42;;;;;;;;;;;15.30;72.60;;;;;;5036279;28;19921;-82
2022/10/22 03:59:08;;;;;;;;;;;15.30;72.60;;;;;;5035851;28;19952;-81
2022/10/22 04:01:33;;;;;;;;;;;15.30;72.60;;;;;;5035723;28;19917;-81
2022/10/22 04:03:59;;;;;;;;;;;15.20;72.60;;;;;;5019500;28;19937;-82
2022/10/22 04:06:25;;;;;;;;;;;15.30;72.60;;;;;;5052442;28;19921;-82
2022/10/22 04:08:50;;;;;;;;;;;15.20;72.60;;;;;;5019607;28;19913;-81
2022/10/22 04:11:16;;;;;;;;;;;15.20;72.60;;;;;;5036397;28;19917;-82
2022/10/22 04:13:42;;;;;;;;;;;15.20;72.60;;;;;;5035579;28;19913;-82
2022/10/22 04:16:12;;;;;;;;;;;15.20;72.60;;;;;;5052814;28;20423;-82
2022/10/22 04:18:38;;;;;;;;;;;15.20;72.60;;;;;;5052396;28;19913;-82
2022/10/22 04:21:05;;;;;;;;;;;15.20;72.70;;;;;;5035582;28;20266;-83
2022/10/22 04:23:30;;;;;;;;;;;15.20;72.60;;;;;;5052865;28;19982;-82
2022/10/22 04:25:57;;;;;;;;;;;15.20;73.30;;;;;;5018667;28;20015;-82
2022/10/22 04:28:23;;;;;;;;;;;15.20;72.60;;;;;;5019458;28;19923;-82
2022/10/22 04:30:49;;;;;;;;;;;15.20;72.70;;;;;;5035248;28;19913;-82
2022/10/22 04:33:14;;;;;;;;;;;15.10;72.60;;;;;;5018516;28;19921;-81
2022/10/22 04:35:40;;;;;;;;;;;15.10;73.30;;;;;;5035550;28;19913;-82
2022/10/22 04:38:05;;;;;;;;;;;15.10;72.60;;;;;;5035600;28;20358;-82
2022/10/22 04:40:31;;;;;;;;;;;15.10;72.70;;;;;;5018852;28;19959;-82
2022/10/22 04:42:57;;;;;;;;;;;15.10;72.70;;;;;;5035367;28;19917;-83
2022/10/22 04:45:22;;;;;;;;;;;15.10;72.60;;;;;;5035705;28;19913;-82
2022/10/22 04:47:48;;;;;;;;;;;15.10;72.70;;;;;;5035805;28;19925;-82
2022/10/22 04:50:13;;;;;;;;;;;15.10;72.70;;;;;;5035389;28;20301;-82
2022/10/22 04:52:39;;;;;;;;;;;15.10;72.70;;;;;;5035156;28;20007;-81
2022/10/22 04:55:05;;;;;;;;;;;15.00;72.60;;;;;;5018134;28;19909;-81
2022/10/22 04:57:31;;;;;;;;;;;15.00;72.60;;;;;;5034313;28;19939;-82
2022/10/22 04:59:56;;;;;;;;;;;15.00;72.60;;;;;;5035104;28;19916;-82
2022/10/22 05:02:22;;;;;;;;;;;15.00;72.60;;;;;;5034585;28;20007;-81
2022/10/22 05:04:48;;;;;;;;;;;15.00;72.70;;;;;;5035061;28;19914;-82
2022/10/22 05:07:13;;;;;;;;;;;15.00;72.70;;;;;;5034780;28;19921;-83
2022/10/22 05:09:39;;;;;;;;;;;15.00;72.70;;;;;;5035132;28;19913;-82
2022/10/22 05:12:05;;;;;;;;;;;15.00;72.70;;;;;;5034823;28;19917;-81
2022/10/22 05:14:31;;;;;;;;;;;15.00;72.70;;;;;;5035585;28;19963;-82
2022/10/22 05:16:56;;;;;;;;;;;15.00;72.70;;;;;;5034682;28;20433;-83
2022/10/22 05:19:24;;;;;;;;;;;15.00;72.70;;;;;;5018687;28;19956;-82
2022/10/22 05:21:51;;;;;;;;;;;15.00;72.70;;;;;;5034530;28;19913;-82
2022/10/22 05:24:16;;;;;;;;;;;15.00;72.70;;;;;;5034149;28;19909;-82
2022/10/22 05:26:42;;;;;;;;;;;15.00;72.70;;;;;;5034265;28;20024;-82
2022/10/22 05:29:08;;;;;;;;;;;14.90;72.70;;;;;;5018656;28;19914;-82
2022/10/22 05:31:33;;;;;;;;;;;14.90;72.70;;;;;;5050984;28;19913;-82
2022/10/22 05:33:59;;;;;;;;;;;14.90;72.70;;;;;;5034592;28;19920;-83
2022/10/22 05:36:25;;;;;;;;;;;14.90;72.70;;;;;;5034134;28;19962;-82
2022/10/22 05:38:50;;;;;;;;;;;14.90;72.70;;;;;;5018086;28;19920;-83
2022/10/22 05:41:17;;;;;;;;;;;14.90;72.70;;;;;;5034223;28;19920;-82
2022/10/22 05:43:43;;;;;;;;;;;14.90;72.70;;;;;;5033891;28;19913;-82
2022/10/22 05:46:13;;;;;;;;;;;14.90;72.80;;;;;;5033289;28;20329;-82
2022/10/22 05:48:39;;;;;;;;;;;14.90;72.70;;;;;;5035182;28;19917;-82
2022/10/22 05:51:08;;;;;;;;;;;14.90;72.70;;;;;;5034731;28;19943;-83
2022/10/22 05:53:35;;;;;;;;;;;14.90;72.70;;;;;;5034104;28;19916;-82
2022/10/22 05:56:02;;;;;;;;;;;14.90;72.70;;;;;;5033636;28;19941;-82
2022/10/22 05:58:27;;;;;;;;;;;14.90;72.80;;;;;;5050400;28;20354;-82
2022/10/22 06:00:53;;;;;;;;;;;14.90;72.70;;;;;;5033997;28;19916;-83
2022/10/22 06:03:18;;;;;;;;;;;14.90;72.70;;;;;;5050467;28;19913;-82
2022/10/22 06:05:44;;;;;;;;;;;14.90;72.80;;;;;;5016863;28;19920;-81
2022/10/22 06:08:12;;;;;;;;;;;14.90;72.80;;;;;;5032597;28;20012;-82
2022/10/22 06:10:40;;;;;;;;;;;14.90;72.80;;;;;;5033476;28;19921;-82
2022/10/22 06:13:07;;;;;;;;;;;14.90;72.80;;;;;;5033060;28;19913;-79
2022/10/22 06:15:32;;;;;;;;;;;14.90;72.80;;;;;;5017368;28;19967;-81
2022/10/22 06:17:58;;;;;;;;;;;14.90;72.80;;;;;;5033923;28;20007;-81
2022/10/22 06:20:23;;;;;;;;;;;14.90;72.80;;;;;;5033436;28;19913;-81
2022/10/22 06:22:49;;;;;;;;;;;14.90;72.80;;;;;;5033513;28;20007;-81
2022/10/22 06:25:15;;;;;;;;;;;14.90;72.80;;;;;;5033454;28;20377;-81
2022/10/22 06:27:40;;;;;;;;;;;14.90;72.80;;;;;;5049680;28;19918;-81
2022/10/22 06:30:06;;;;;;;;;;;14.90;72.80;;;;;;5016872;28;19917;-81
2022/10/22 06:32:32;;;;;;;;;;;14.90;72.90;;;;;;5017101;28;20019;-82
2022/10/22 06:34:57;;;;;;;;;;;14.90;72.90;;;;;;5017528;28;19913;-80
2022/10/22 06:37:23;;;;;;;;;;;14.90;72.90;;;;;;5033873;28;19971;-81
2022/10/22 06:39:49;;;;;;;;;;;14.90;72.90;;;;;;5016614;28;20324;-81
2022/10/22 06:42:14;;;;;;;;;;;14.90;72.90;;;;;;5033843;28;19918;-81
2022/10/22 06:44:40;;;;;;;;;;;14.90;72.90;;;;;;5033023;28;19960;-81
2022/10/22 06:47:06;;;;;;;;;;;14.90;72.90;;;;;;5032727;28;19932;-81
2022/10/22 06:49:31;;;;;;;;;;;14.90;72.90;;;;;;5016555;28;19917;-81
2022/10/22 06:51:57;;;;;;;;;;;14.90;72.90;;;;;;5049599;28;19949;-81
2022/10/22 06:54:22;;;;;;;;;;;15.00;73.00;;;;;;5032924;28;19924;-82
2022/10/22 06:56:48;;;;;;;;;;;15.00;73.00;;;;;;5016143;28;19996;-81
2022/10/22 06:59:14;;;;;;;;;;;15.00;73.00;;;;;;5016502;28;19968;-81
2022/10/22 07:01:41;;;;;;;;;;;15.00;73.00;;;;;;5016689;28;19929;-80
2022/10/22 07:04:07;;;;;;;;;;;15.00;73.00;;;;;;5033126;28;19913;-81
2022/10/22 07:06:33;;;;;;;;;;;15.00;73.10;;;;;;5032832;28;19928;-81
2022/10/22 07:08:59;;;;;;;;;;;15.00;73.00;;;;;;5016051;28;20004;-80
2022/10/22 07:11:26;;;;;;;;;;;15.00;73.00;;;;;;5049405;28;20378;-82
2022/10/22 07:13:53;;;;;;;;;;;15.00;73.00;;;;;;5032588;28;19909;-81
2022/10/22 07:16:18;;;;;;;;;;;15.00;73.10;;;;;;5016112;28;19924;-82
2022/10/22 07:18:44;;;;;;;;;;;15.00;73.10;;;;;;5032685;28;20285;-82
2022/10/22 07:21:10;;;;;;;;;;;15.00;73.10;;;;;;5049113;28;20020;-81
2022/10/22 07:23:36;;;;;;;;;;;15.10;73.10;;;;;;5032692;28;19952;-81
2022/10/22 07:26:02;;;;;;;;;;;15.10;73.10;;;;;;5033541;28;19917;-80
2022/10/22 07:28:28;;;;;;;;;;;15.10;73.10;;;;;;5032217;28;19913;-81
2022/10/22 07:30:54;;;;;;;;;;;15.10;73.10;;;;;;5015526;28;20344;-80
2022/10/22 07:33:19;;;;;;;;;;;15.10;73.10;;;;;;5032278;28;19909;-79
2022/10/22 07:35:45;;;;;;;;;;;15.10;73.10;;;;;;5032209;28;19958;-81
2022/10/22 07:38:10;;;;;;;;;;;15.10;73.10;;;;;;5033809;28;19920;-82
2022/10/22 07:40:36;;;;;;;;;;;15.20;73.80;;;;;;5015820;28;20382;-80
2022/10/22 07:43:02;;;;;;;;;;;15.10;73.10;;;;;;5032036;28;19917;-81
2022/10/22 07:45:28;;;;;;;;;;;15.20;73.10;;;;;;5032147;28;19914;-81
2022/10/22 07:47:53;;;;;;;;;;;15.20;73.10;;;;;;5032121;28;19925;-82
2022/10/22 07:50:19;;;;;;;;;;;15.20;73.10;;;;;;5015551;28;19924;-81
2022/10/22 07:52:45;;;;;;;;;;;15.20;73.10;;;;;;5032053;28;19913;-82
2022/10/22 07:55:12;;;;;;;;;;;15.20;73.10;;;;;;5032115;28;19917;-81
2022/10/22 07:57:38;;;;;;;;;;;15.20;73.10;;;;;;5032881;28;19967;-81
2022/10/22 08:00:05;;;;;;;;;;;15.20;73.10;;;;;;5032396;28;19909;-81
2022/10/22 08:02:37;;;;;;;;;;;15.30;73.10;;;;;;5032379;28;20017;-81
2022/10/22 08:05:03;;;;;;;;;;;15.30;73.10;;;;;;5015807;28;20010;-82
2022/10/22 08:07:28;;;;;;;;;;;15.30;73.10;;;;;;5015685;28;19922;-82
2022/10/22 08:09:54;;;;;;;;;;;15.30;73.10;;;;;;5048679;28;20354;-83
2022/10/22 08:12:19;;;;;;;;;;;15.40;73.10;;;;;;5031826;28;19917;-82
2022/10/22 08:14:45;;;;;;;;;;;15.40;73.10;;;;;;5015446;28;19917;-82
2022/10/22 08:17:11;;;;;;;;;;;15.40;73.10;;;;;;5015698;28;19913;-82
2022/10/22 08:19:36;;;;;;;;;;;15.40;73.10;;;;;;5032468;28;19982;-82
2022/10/22 08:22:02;;;;;;;;;;;15.40;73.10;;;;;;5048748;28;20389;-82
2022/10/22 08:24:28;;;;;;;;;;;15.40;73.10;;;;;;5032260;28;20043;-82
2022/10/22 08:26:54;;;;;;;;;;;15.50;73.10;;;;;;5031676;28;19921;-82
2022/10/22 08:29:21;;;;;;;;;;;15.50;73.20;;;;;;5032289;28;19935;-81
2022/10/22 08:31:47;;;;;;;;;;;15.50;73.20;;;;;;5035442;28;19909;-82
2022/10/22 08:34:12;;;;;;;;;;;15.50;73.10;;;;;;5036479;28;20036;-81
2022/10/22 08:36:38;;;;;;;;;;;15.60;73.10;;;;;;5018837;28;19913;-82
2022/10/22 08:39:04;;;;;;;;;;;15.60;73.20;;;;;;5035364;28;20358;-81
2022/10/22 08:41:29;;;;;;;;;;;15.60;73.10;;;;;;5018371;28;20012;-82
2022/10/22 08:44:14;;;;;;;;;;;15.70;73.10;;;;;;5018930;28;19917;-82
2022/10/22 08:46:42;;;;;;;;;;;15.70;73.20;;;;;;5051469;28;19925;-82
2022/10/22 08:49:14;;;;;;;;;;;15.70;73.10;;;;;;5036417;28;19919;-81
2022/10/22 08:51:39;;;;;;;;;;;15.80;73.20;;;;;;5034931;28;20012;-81
2022/10/22 08:54:24;;;;;;;;;;;15.80;73.10;;;;;;5035148;28;19959;-82
2022/10/22 08:56:56;;;;;;;;;;;15.80;73.10;;;;;;5051385;28;19909;-81
2022/10/22 08:59:21;;;;;;;;;;;15.80;73.10;;;;;;5051808;28;19913;-82
2022/10/22 09:01:50;;;;;;;;;;;15.90;73.10;;;;;;5051586;28;19955;-81
2022/10/22 09:04:24;;;;;;;;;;;15.90;73.10;;;;;;5034857;28;19952;-81
2022/10/22 09:06:50;;;;;;;;;;;15.90;73.10;;;;;;5036230;28;19913;-81
2022/10/22 09:09:17;;;;;;;;;;;16.00;73.20;;;;;;5034741;28;19925;-81
2022/10/22 09:11:45;;;;;;;;;;;16.00;73.20;;;;;;5034647;28;19920;-81
2022/10/22 09:14:16;;;;;;;;;;;16.00;73.20;;;;;;5034706;28;20277;-82
2022/10/22 09:16:50;;;;;;;;;;;16.00;73.10;;;;;;5035442;28;19920;-81
2022/10/22 09:19:30;;;;;;;;;;;16.10;73.20;;;;;;5034904;28;19975;-81
2022/10/22 09:22:05;;;;;;;;;;;16.10;73.20;;;;;;5051519;28;19932;-81
2022/10/22 09:24:38;;;;;;;;;;;16.20;73.20;;;;;;5035875;28;19920;-82
2022/10/22 09:27:18;;;;;;;;;;;16.20;73.20;;;;;;5034570;28;20025;-81
2022/10/22 09:29:45;;;;;;;;;;;16.20;73.20;;;;;;5034278;28;19972;-82
2022/10/22 09:32:10;;;;;;;;;;;16.20;73.20;;;;;;5034397;28;19916;-81
2022/10/22 09:34:36;;;;;;;;;;;16.30;73.20;;;;;;5034294;28;19917;-82
2022/10/22 09:37:04;;;;;;;;;;;16.30;73.20;;;;;;5034000;28;19909;-82
2022/10/22 09:39:35;;;;;;;;;;;16.30;73.20;;;;;;5033929;28;19916;-82
2022/10/22 09:42:01;;;;;;;;;;;16.30;73.80;;;;;;5033043;28;19919;-82
2022/10/22 09:44:27;;;;;;;;;;;16.40;73.20;;;;;;5017256;28;19996;-93
2022/10/22 09:46:52;;;;;;;;;;;16.40;73.20;;;;;;5034098;28;19925;-87
2022/10/22 09:49:20;;;;;;;;;;;16.40;73.40;;;;;;5017741;28;20266;-87
2022/10/22 09:51:46;;;;;;;;;;;16.50;73.70;;;;;;5033770;28;19960;-80
2022/10/22 09:54:19;;;;;;;;;;;16.50;73.90;;;;;;5050363;28;19924;-80
2022/10/22 09:56:53;;;;;;;;;;;16.60;73.90;;;;;;5034383;28;19913;-80
2022/10/22 09:59:24;;;;;;;;;;;16.60;73.90;;;;;;5050594;28;19917;-84
2022/10/22 10:01:55;;;;;;;;;;;16.60;74.00;;;;;;5017395;28;19928;-82
2022/10/22 10:04:21;;;;;;;;;;;16.70;74.10;;;;;;5034318;28;19913;-85
2022/10/22 10:06:52;;;;;;;;;;;16.70;74.10;;;;;;5017854;28;19928;-85
2022/10/22 10:09:20;;;;;;;;;;;16.70;74.10;;;;;;5035023;28;20008;-85
2022/10/22 10:11:51;;;;;;;;;;;16.70;74.10;;;;;;5034366;28;20380;-84
2022/10/22 10:14:19;;;;;;;;;;;16.80;74.10;;;;;;5034461;28;19913;-85
2022/10/22 10:16:54;;;;;;;;;;;16.80;74.10;;;;;;5051080;28;19909;-84
2022/10/22 10:19:26;;;;;;;;;;;16.90;74.10;;;;;;5050346;28;20387;-83
2022/10/22 10:21:57;;;;;;;;;;;16.90;74.10;;;;;;5050795;28;19913;-85
2022/10/22 10:24:46;;;;;;;;;;;16.90;74.10;;;;;;5034064;28;20002;-85
2022/10/22 10:27:19;;;;;;;;;;;16.90;74.10;;;;;;4990162;28;19921;-85
2022/10/22 10:29:47;;;;;;;;;;;16.90;74.00;;;;;;5034282;28;19913;-85
2022/10/22 10:32:22;;;;;;;;;;;16.90;74.00;;;;;;5034315;28;19913;-85
2022/10/22 10:34:56;;;;;;;;;;;17.00;74.00;;;;;;5034682;28;19913;-86
2022/10/22 10:37:26;;;;;;;;;;;17.00;73.90;;;;;;5050429;28;20000;-85
2022/10/22 10:39:52;;;;;;;;;;;17.00;73.90;;;;;;5050443;28;19909;-85
2022/10/22 10:42:40;;;;;;;;;;;17.00;73.90;;;;;;5034080;28;20248;-84
2022/10/22 10:45:11;;;;;;;;;;;17.10;73.90;;;;;;5033737;28;19979;-86
2022/10/22 10:47:37;;;;;;;;;;;17.10;73.90;;;;;;5050008;28;19921;-82
2022/10/22 10:50:17;;;;;;;;;;;17.10;73.80;;;;;;5033072;28;19924;-83
2022/10/22 10:52:49;;;;;;;;;;;17.10;73.80;;;;;;5033168;28;19924;-85
2022/10/22 10:55:21;;;;;;;;;;;17.20;73.80;;;;;;5050210;28;19917;-82
2022/10/22 10:57:50;;;;;;;;;;;17.20;73.80;;;;;;5032939;28;19913;-81
2022/10/22 11:00:18;;;;;;;;;;;17.20;73.70;;;;;;5034145;28;19935;-82
2022/10/22 11:02:44;;;;;;;;;;;17.20;73.70;;;;;;5032835;28;19913;-82
2022/10/22 11:05:28;;;;;;;;;;;17.30;73.70;;;;;;5049481;28;19947;-82
2022/10/22 11:08:03;;;;;;;;;;;17.30;73.70;;;;;;5049546;28;20053;-81
2022/10/22 11:10:31;;;;;;;;;;;17.30;73.60;;;;;;5049382;28;19919;-80
2022/10/22 11:13:02;;;;;;;;;;;17.40;73.70;;;;;;5032548;28;19911;-82
2022/10/22 11:15:32;;;;;;;;;;;17.40;73.60;;;;;;5032808;28;19913;-81
2022/10/22 11:18:21;;;;;;;;;;;17.40;73.60;;;;;;5032774;28;20396;-84
2022/10/22 11:20:59;;;;;;;;;;;17.50;73.60;;;;;;5024367;28;19945;-82
2022/10/22 11:23:31;;;;;;;;;;;17.50;73.60;;;;;;5049206;28;19913;-81
2022/10/22 11:25:59;;;;;;;;;;;17.50;73.50;;;;;;5032179;28;20378;-82
2022/10/22 11:28:26;;;;;;;;;;;17.50;74.10;;;;;;5032891;28;19961;-82
2022/10/22 11:30:58;;;;;;;;;;;17.60;73.60;;;;;;5032442;28;19945;-83
2022/10/22 11:33:25;;;;;;;;;;;17.60;73.50;;;;;;5049532;28;19920;-84
2022/10/22 11:35:51;;;;;;;;;;;17.60;73.40;;;;;;5033000;28;19935;-84
2022/10/22 11:38:21;;;;;;;;;;;17.70;73.40;;;;;;5016123;28;19924;-83
2022/10/22 11:40:49;;;;;;;;;;;17.70;73.40;;;;;;5032071;28;19913;-82
2022/10/22 11:43:26;;;;;;;;;;;17.70;73.40;;;;;;5033543;28;19909;-84
2022/10/22 11:45:56;;;;;;;;;;;17.80;73.40;;;;;;5033523;28;19913;-84
2022/10/22 11:48:25;;;;;;;;;;;17.80;73.40;;;;;;5033309;28;19952;-84
2022/10/22 11:50:56;;;;;;;;;;;17.80;73.40;;;;;;5032913;28;19920;-84
2022/10/22 11:53:24;;;;;;;;;;;17.80;73.40;;;;;;5032843;28;19913;-83
2022/10/22 11:55:56;;;;;;;;;;;17.90;73.40;;;;;;5033740;28;19917;-83
2022/10/22 11:58:31;;;;;;;;;;;17.90;73.40;;;;;;5049121;28;20243;-82
2022/10/22 12:01:11;;;;;;;;;;;17.90;73.30;;;;;;5049089;28;19920;-83
2022/10/22 12:03:39;;;;;;;;;;;17.90;73.30;;;;;;5049068;28;19914;-83
2022/10/22 12:06:10;;;;;;;;;;;18.00;73.30;;;;;;5035483;28;19909;-84
2022/10/22 12:08:48;;;;;;;;;;;18.00;73.30;;;;;;5052804;28;19921;-81
2022/10/22 12:11:21;;;;;;;;;;;18.00;73.30;;;;;;5037651;28;19913;-85
2022/10/22 12:13:57;;;;;;;;;;;18.10;73.20;;;;;;5036559;28;19989;-85
2022/10/22 12:16:32;;;;;;;;;;;18.10;73.20;;;;;;5053053;28;19971;-84
2022/10/22 12:19:03;;;;;;;;;;;18.10;73.20;;;;;;5036671;28;19913;-85
2022/10/22 12:21:31;;;;;;;;;;;18.20;73.20;;;;;;5036290;28;20365;-84
2022/10/22 12:23:56;;;;;;;;;;;18.20;73.10;;;;;;5036453;28;20384;-85
2022/10/22 12:26:23;;;;;;;;;;;18.20;73.10;;;;;;5019554;28;20084;-85
2022/10/22 12:28:49;;;;;;;;;;;18.30;73.10;;;;;;5036339;28;19908;-85
2022/10/22 12:31:15;;;;;;;;;;;18.30;73.10;;;;;;5036219;28;20452;-86
2022/10/22 12:33:40;;;;;;;;;;;18.30;73.00;;;;;;5036422;28;19963;-87
2022/10/22 12:36:06;;;;;;;;;;;18.30;73.00;;;;;;5036345;28;19939;-86
2022/10/22 12:38:32;;;;;;;;;;;18.30;73.00;;;;;;5019630;28;20320;-86
2022/10/22 12:40:57;;;;;;;;;;;18.40;73.00;;;;;;5036033;28;20249;-85
2022/10/22 12:43:28;;;;;;;;;;;18.40;72.90;;;;;;5019026;28;19909;-82
2022/10/22 12:45:56;;;;;;;;;;;18.40;72.90;;;;;;5035089;28;19936;-81
2022/10/22 12:48:30;;;;;;;;;;;18.40;72.90;;;;;;5035384;28;20255;-83
2022/10/22 12:51:00;;;;;;;;;;;18.50;72.90;;;;;;5036131;28;19913;-83
2022/10/22 12:53:26;;;;;;;;;;;18.50;72.90;;;;;;5035512;28;19979;-84
2022/10/22 12:55:53;;;;;;;;;;;18.50;72.80;;;;;;5036771;28;19909;-84
2022/10/22 12:58:20;;;;;;;;;;;18.50;72.80;;;;;;5035338;28;19909;-83
2022/10/22 13:00:46;;;;;;;;;;;18.60;72.80;;;;;;5036252;28;19913;-84
2022/10/22 13:03:24;;;;;;;;;;;18.60;72.80;;;;;;5018654;28;19913;-84
2022/10/22 13:05:50;;;;;;;;;;;18.60;72.80;;;;;;5035045;28;19913;-83
2022/10/22 13:08:16;;;;;;;;;;;18.60;72.80;;;;;;5035004;28;19917;-82
2022/10/22 13:10:48;;;;;;;;;;;18.70;72.80;;;;;;5018328;28;20408;-82
2022/10/22 13:13:30;;;;;;;;;;;18.60;72.80;;;;;;5035172;28;19913;-82
2022/10/22 13:16:11;;;;;;;;;;;18.70;72.80;;;;;;5034415;28;19956;-82
2022/10/22 13:18:37;;;;;;;;;;;18.70;72.70;;;;;;5034475;28;19913;-83
2022/10/22 13:21:04;;;;;;;;;;;18.80;72.80;;;;;;5018290;28;20003;-84
2022/10/22 13:23:31;;;;;;;;;;;18.80;72.70;;;;;;5034650;28;20011;-83
2022/10/22 13:26:00;;;;;;;;;;;18.80;72.70;;;;;;5034848;28;19910;-83
2022/10/22 13:28:26;;;;;;;;;;;18.80;72.70;;;;;;5034419;28;19936;-83
2022/10/22 13:30:56;;;;;;;;;;;18.80;72.70;;;;;;5034234;28;19917;-83
2022/10/22 13:33:25;;;;;;;;;;;18.90;72.70;;;;;;5034965;28;19963;-84
2022/10/22 13:35:51;;;;;;;;;;;18.90;72.60;;;;;;5034385;28;19909;-83
2022/10/22 13:38:18;;;;;;;;;;;18.90;72.60;;;;;;5034391;28;19996;-83
2022/10/22 13:40:44;;;;;;;;;;;18.90;72.60;;;;;;5034691;28;19932;-82
2022/10/22 13:43:10;;;;;;;;;;;19.00;72.60;;;;;;5034232;28;19917;-84
2022/10/22 13:45:35;;;;;;;;;;;19.00;72.60;;;;;;5017445;28;20270;-82
2022/10/22 13:48:02;;;;;;;;;;;19.00;72.50;;;;;;5034522;28;19921;-84
2022/10/22 13:50:28;;;;;;;;;;;19.00;72.50;;;;;;5035120;28;20000;-83
2022/10/22 13:52:57;;;;;;;;;;;19.00;72.50;;;;;;5034839;28;20002;-84
2022/10/22 13:55:27;;;;;;;;;;;19.10;72.60;;;;;;5033914;28;19996;-84
2022/10/22 13:57:55;;;;;;;;;;;19.10;72.50;;;;;;5033771;28;19913;-83
2022/10/22 14:00:21;;;;;;;;;;;19.10;72.50;;;;;;5035170;28;20004;-82
2022/10/22 14:02:49;;;;;;;;;;;19.10;72.50;;;;;;5033798;28;19990;-82
2022/10/22 14:05:16;;;;;;;;;;;19.10;72.50;;;;;;5033660;28;19909;-81
2022/10/22 14:07:42;;;;;;;;;;;19.10;72.50;;;;;;5033838;28;20396;-82
2022/10/22 14:10:14;;;;;;;;;;;19.10;72.40;;;;;;5033491;28;19909;-80
2022/10/22 14:12:40;;;;;;;;;;;19.10;72.40;;;;;;5033269;28;20358;-82
2022/10/22 14:15:06;;;;;;;;;;;19.10;72.40;;;;;;5017920;28;19914;-82
2022/10/22 14:17:31;;;;;;;;;;;19.20;72.50;;;;;;5034329;28;19917;-85
2022/10/22 14:19:57;;;;;;;;;;;19.20;72.60;;;;;;5033756;28;20074;-84
2022/10/22 14:22:24;;;;;;;;;;;19.20;72.70;;;;;;5033534;28;20403;-80